Time;durP1;ratioP1;P1;durP2;ratioP2;P2;SDS_P1;SDS_P2;PMS_P1;PMS_P2;Temp;Humidity;BMP_temperature;BMP_pressure;BME280_temperature;BME280_humidity;BME280_pressure;Samples;Min_cycle;Max_cycle;Signal;HPM_P1;HPM_P2
2022/03/08 00:00:53;;;;;;;;;;;;;;;18.85;48.82;99534.31;2094481;28;19924;-56
2022/03/08 00:01:53;;;;;;;;;;;;;;;18.87;48.84;99539.63;2091355;28;19931;-58
2022/03/08 00:02:57;;;;;;;;;;;;;;;18.86;48.98;99541.47;2092611;28;19916;-57
2022/03/08 00:03:57;;;;;;;;;;;;;;;18.87;48.92;99539.63;2089040;28;19951;-57
2022/03/08 00:04:57;;;;;;;;;;;;;;;18.88;48.86;99544.03;2089392;28;19912;-58
2022/03/08 00:05:58;;;;;;;;;;;;;;;18.87;49.03;99539.63;2089459;28;20432;-58
2022/03/08 00:06:58;;;;;;;;;;;;;;;18.88;48.82;99533.97;2088865;28;20011;-58
2022/03/08 00:07:59;;;;;;;;;;;;;;;18.89;48.82;99540.28;2092364;28;20143;-58
2022/03/08 00:09:00;;;;;;;;;;;;;;;18.90;48.76;99547.47;2087224;28;19927;-58
2022/03/08 00:10:00;;;;;;;;;;;;;;;18.90;48.87;99545.59;2092500;28;20216;-58
2022/03/08 00:11:03;;;;;;;;;;;;;;;18.89;48.76;99537.56;2095211;28;19920;-58
2022/03/08 00:12:03;;;;;;;;;;;;;;;18.89;48.90;99541.16;2087480;28;19920;-58
2022/03/08 00:13:04;;;;;;;;;;;;;;;18.89;48.76;99538.44;2088237;28;19959;-58
2022/03/08 00:14:04;;;;;;;;;;;;;;;18.89;48.84;99537.56;2098738;28;19923;-58
2022/03/08 00:15:08;;;;;;;;;;;;;;;18.89;48.82;99543.00;2088045;28;20251;-57
2022/03/08 00:16:09;;;;;;;;;;;;;;;18.89;48.79;99538.44;2091037;28;19920;-58
2022/03/08 00:17:09;;;;;;;;;;;;;;;18.89;48.90;99543.91;2086025;28;20381;-58
2022/03/08 00:18:10;;;;;;;;;;;;;;;18.90;48.84;99539.28;2093090;28;20001;-58
2022/03/08 00:19:10;;;;;;;;;;;;;;;18.90;48.85;99542.00;2095328;28;20161;-57
2022/03/08 00:20:12;;;;;;;;;;;;;;;18.90;48.86;99544.75;2087032;28;19917;-57
2022/03/08 00:21:12;;;;;;;;;;;;;;;18.89;48.79;99543.00;2090727;28;19920;-57
2022/03/08 00:22:13;;;;;;;;;;;;;;;18.88;48.80;99546.78;2093873;28;19947;-57
2022/03/08 00:23:13;;;;;;;;;;;;;;;18.89;48.91;99549.34;2094716;28;19923;-56
2022/03/08 00:24:16;;;;;;;;;;;;;;;18.89;48.83;99548.47;2091105;28;19920;-57
2022/03/08 00:25:16;;;;;;;;;;;;;;;18.89;48.87;99551.22;2090538;28;19923;-57
2022/03/08 00:26:17;;;;;;;;;;;;;;;18.89;48.79;99545.75;2081891;28;20349;-57
2022/03/08 00:27:17;;;;;;;;;;;;;;;18.89;48.88;99543.00;2082823;28;20316;-57
2022/03/08 00:28:17;;;;;;;;;;;;;;;18.88;48.86;99544.91;2090607;28;20085;-57
2022/03/08 00:29:18;;;;;;;;;;;;;;;18.88;48.86;99541.31;2086324;28;19947;-57
2022/03/08 00:30:20;;;;;;;;;;;;;;;18.88;48.88;99546.78;2081383;28;20510;-57
2022/03/08 00:31:20;;;;;;;;;;;;;;;18.85;48.86;99543.34;2083505;28;19920;-57
2022/03/08 00:32:20;;;;;;;;;;;;;;;18.85;49.01;99543.34;2083171;28;20242;-57
2022/03/08 00:33:21;;;;;;;;;;;;;;;18.83;49.03;99539.91;2090374;28;20015;-57
2022/03/08 00:34:21;;;;;;;;;;;;;;;18.84;48.91;99536.19;2089308;28;19966;-57
2022/03/08 00:35:22;;;;;;;;;;;;;;;18.83;48.95;99539.91;2090479;28;19924;-57
2022/03/08 00:36:22;;;;;;;;;;;;;;;18.82;48.88;99540.94;2092165;28;19916;-57
2022/03/08 00:37:23;;;;;;;;;;;;;;;18.84;48.94;99541.66;2090698;28;19927;-57
2022/03/08 00:38:23;;;;;;;;;;;;;;;18.82;48.99;99538.22;2091376;28;20420;-57
2022/03/08 00:39:23;;;;;;;;;;;;;;;18.83;48.99;99539.91;2089258;28;19921;-57
2022/03/08 00:40:24;;;;;;;;;;;;;;;18.84;48.88;99538.91;2091051;28;19924;-58
2022/03/08 00:41:25;;;;;;;;;;;;;;;18.83;48.96;99545.38;2089565;28;19954;-57
2022/03/08 00:42:25;;;;;;;;;;;;;;;18.84;48.90;99541.66;2086827;28;19920;-57
2022/03/08 00:43:25;;;;;;;;;;;;;;;18.82;48.90;99537.38;2091134;28;19948;-57
2022/03/08 00:44:26;;;;;;;;;;;;;;;18.82;48.87;99538.22;2090731;28;19924;-57
2022/03/08 00:45:26;;;;;;;;;;;;;;;18.83;48.96;99534.44;2091678;28;19935;-57
2022/03/08 00:46:26;;;;;;;;;;;;;;;18.82;48.97;99538.22;2089705;28;20148;-57
2022/03/08 00:47:27;;;;;;;;;;;;;;;18.83;48.90;99537.19;2088698;28;19924;-57
2022/03/08 00:48:27;;;;;;;;;;;;;;;18.84;48.88;99541.66;2089590;28;19970;-57
2022/03/08 00:49:27;;;;;;;;;;;;;;;18.84;48.87;99533.44;2094054;28;20569;-57
2022/03/08 00:50:29;;;;;;;;;;;;;;;18.84;48.80;99533.44;2094599;28;20005;-57
2022/03/08 00:51:29;;;;;;;;;;;;;;;18.84;48.82;99533.44;2079285;28;19924;-57
2022/03/08 00:52:30;;;;;;;;;;;;;;;18.87;48.83;99529.53;2081572;28;19927;-57
2022/03/08 00:53:30;;;;;;;;;;;;;;;18.86;48.88;99533.28;2096036;28;19928;-57
2022/03/08 00:54:31;;;;;;;;;;;;;;;18.85;48.96;99523.38;2090241;28;19927;-57
2022/03/08 00:55:32;;;;;;;;;;;;;;;18.85;49.13;99524.22;2090059;28;19927;-57
2022/03/08 00:56:33;;;;;;;;;;;;;;;18.83;48.81;99523.53;2090181;28;20006;-57
2022/03/08 00:57:33;;;;;;;;;;;;;;;18.87;48.85;99528.69;2087999;28;20468;-57
2022/03/08 00:58:35;;;;;;;;;;;;;;;18.84;48.82;99522.53;2089165;28;19920;-57
2022/03/08 00:59:35;;;;;;;;;;;;;;;18.85;48.95;99532.41;2087407;28;19921;-57
2022/03/08 01:00:37;;;;;;;;;;;;;;;18.85;48.98;99529.69;2092047;28;19923;-57
2022/03/08 01:01:37;;;;;;;;;;;;;;;18.84;48.92;99519.81;2091930;28;20189;-57
2022/03/08 01:02:38;;;;;;;;;;;;;;;18.86;48.94;99530.53;2093759;28;20578;-57
2022/03/08 01:03:38;;;;;;;;;;;;;;;18.84;48.83;99529.88;2089234;28;19958;-57
2022/03/08 01:04:38;;;;;;;;;;;;;;;18.83;48.98;99529.00;2092659;28;19920;-57
2022/03/08 01:05:39;;;;;;;;;;;;;;;18.85;48.86;99526.97;2091576;28;19931;-57
2022/03/08 01:06:40;;;;;;;;;;;;;;;18.83;48.99;99526.25;2092402;28;20428;-57
2022/03/08 01:07:40;;;;;;;;;;;;;;;18.85;48.90;99532.41;2088906;28;19920;-57
2022/03/08 01:08:41;;;;;;;;;;;;;;;18.85;48.93;99531.56;2092082;28;21087;-57
2022/03/08 01:09:41;;;;;;;;;;;;;;;18.85;48.82;99537.03;2092988;28;20074;-57
2022/03/08 01:10:41;;;;;;;;;;;;;;;18.85;48.99;99528.84;2093991;28;19927;-57
2022/03/08 01:11:42;;;;;;;;;;;;;;;18.82;49.03;99527.28;2088694;28;19939;-57
2022/03/08 01:12:44;;;;;;;;;;;;;;;18.82;48.99;99527.28;2093013;28;19916;-57
2022/03/08 01:13:44;;;;;;;;;;;;;;;18.82;49.05;99527.28;2100608;28;19930;-57
2022/03/08 01:14:45;;;;;;;;;;;;;;;18.81;49.12;99531.06;2091708;28;20143;-57
2022/03/08 01:15:45;;;;;;;;;;;;;;;18.80;49.11;99532.06;2096886;28;20477;-57
2022/03/08 01:16:45;;;;;;;;;;;;;;;18.81;49.06;99533.78;2093043;28;20218;-57
2022/03/08 01:17:47;;;;;;;;;;;;;;;18.80;49.07;99534.78;2090515;28;19926;-61
2022/03/08 01:18:48;;;;;;;;;;;;;;;18.78;49.12;99528.63;2090893;28;20397;-59
2022/03/08 01:19:48;;;;;;;;;;;;;;;18.79;49.15;99532.19;2089041;28;19931;-58
2022/03/08 01:20:48;;;;;;;;;;;;;;;18.78;49.13;99528.63;2092229;28;19916;-57
2022/03/08 01:21:49;;;;;;;;;;;;;;;18.79;49.04;99530.34;2086792;28;19915;-57
2022/03/08 01:22:49;;;;;;;;;;;;;;;18.77;49.11;99529.66;2091209;28;20309;-58
2022/03/08 01:23:49;;;;;;;;;;;;;;;18.78;49.10;99530.50;2091985;28;19920;-58
2022/03/08 01:24:50;;;;;;;;;;;;;;;18.77;49.08;99529.66;2087944;28;19925;-58
2022/03/08 01:25:50;;;;;;;;;;;;;;;18.77;49.02;99532.38;2079983;28;20378;-58
2022/03/08 01:26:50;;;;;;;;;;;;;;;18.77;49.04;99529.66;2086160;28;20019;-58
2022/03/08 01:27:51;;;;;;;;;;;;;;;18.76;49.02;99527.94;2091502;28;19924;-58
2022/03/08 01:28:51;;;;;;;;;;;;;;;18.76;49.11;99527.06;2092148;28;20096;-58
2022/03/08 01:29:51;;;;;;;;;;;;;;;18.76;49.18;99518.88;2089795;28;19920;-59
2022/03/08 01:30:52;;;;;;;;;;;;;;;18.77;48.99;99526.94;2091635;28;19920;-58
2022/03/08 01:31:52;;;;;;;;;;;;;;;18.78;49.17;99520.44;2087484;28;19920;-58
2022/03/08 01:32:53;;;;;;;;;;;;;;;18.77;49.12;99518.72;2081352;28;20132;-58
2022/03/08 01:33:54;;;;;;;;;;;;;;;18.79;49.06;99524.88;2087917;28;19932;-58
2022/03/08 01:34:55;;;;;;;;;;;;;;;18.78;48.94;99520.44;2087295;28;19931;-58
2022/03/08 01:35:55;;;;;;;;;;;;;;;18.78;48.90;99520.44;2088892;28;19985;-58
2022/03/08 01:36:56;;;;;;;;;;;;;;;18.78;49.12;99514.97;2088255;28;20237;-58
2022/03/08 01:37:57;;;;;;;;;;;;;;;18.77;48.97;99513.28;2085207;28;20043;-58
2022/03/08 01:38:57;;;;;;;;;;;;;;;18.78;49.02;99514.97;2094235;28;19915;-58
2022/03/08 01:39:58;;;;;;;;;;;;;;;18.78;49.05;99512.25;2088820;28;20200;-58
2022/03/08 01:40:58;;;;;;;;;;;;;;;18.78;49.00;99509.50;2086751;28;20289;-58
2022/03/08 01:41:58;;;;;;;;;;;;;;;18.77;49.05;99507.81;2083689;28;20419;-58
2022/03/08 01:43:00;;;;;;;;;;;;;;;18.79;48.96;99504.91;2086529;28;20333;-59
2022/03/08 01:44:01;;;;;;;;;;;;;;;18.78;49.04;99505.94;2091668;28;20174;-58
2022/03/08 01:45:02;;;;;;;;;;;;;;;18.78;49.27;99508.66;2092608;28;19969;-58
2022/03/08 01:46:02;;;;;;;;;;;;;;;18.77;49.17;99502.34;2089697;28;19994;-58
2022/03/08 01:47:02;;;;;;;;;;;;;;;18.77;49.05;99491.44;2093632;28;20265;-58
2022/03/08 01:48:03;;;;;;;;;;;;;;;18.78;49.15;99503.19;2095546;28;19919;-58
2022/03/08 01:49:04;;;;;;;;;;;;;;;18.77;48.99;99488.69;2091040;28;19927;-58
2022/03/08 01:50:06;;;;;;;;;;;;;;;18.77;49.14;99496.03;2092817;28;19949;-58
2022/03/08 01:51:06;;;;;;;;;;;;;;;18.76;49.05;99488.84;2096475;28;19920;-57
2022/03/08 01:52:07;;;;;;;;;;;;;;;18.76;49.23;99481.50;2094737;28;19983;-57
2022/03/08 01:53:08;;;;;;;;;;;;;;;18.75;48.98;99482.50;2094730;28;19924;-58
2022/03/08 01:54:09;;;;;;;;;;;;;;;18.74;49.07;99491.72;2084578;28;19932;-58
2022/03/08 01:55:12;;;;;;;;;;;;;;;18.73;48.97;99490.00;2084379;28;19920;-57
2022/03/08 01:56:12;;;;;;;;;;;;;;;18.73;49.20;99479.06;2081497;28;19923;-58
2022/03/08 01:57:13;;;;;;;;;;;;;;;18.72;49.09;99479.25;2080639;28;19999;-57
2022/03/08 01:58:13;;;;;;;;;;;;;;;18.72;49.19;99488.31;2080096;28;19924;-58
2022/03/08 01:59:13;;;;;;;;;;;;;;;18.71;49.32;99480.25;2085245;28;20075;-57
2022/03/08 02:00:16;;;;;;;;;;;;;;;18.70;49.21;99479.41;2090509;28;20202;-58
2022/03/08 02:01:16;;;;;;;;;;;;;;;18.71;49.30;99494.75;2091836;28;19919;-57
2022/03/08 02:02:17;;;;;;;;;;;;;;;18.70;49.39;99490.31;2093947;28;19920;-57
2022/03/08 02:03:17;;;;;;;;;;;;;;;18.71;49.38;99488.44;2092712;28;19912;-57
2022/03/08 02:04:18;;;;;;;;;;;;;;;18.69;49.37;99488.63;2093697;28;20306;-58
2022/03/08 02:05:18;;;;;;;;;;;;;;;18.69;49.29;99477.72;2091422;28;20390;-57
2022/03/08 02:06:18;;;;;;;;;;;;;;;18.69;49.48;99485.91;2091430;28;19951;-58
2022/03/08 02:07:19;;;;;;;;;;;;;;;18.69;49.34;99488.63;2097942;28;19963;-58
2022/03/08 02:08:19;;;;;;;;;;;;;;;18.69;49.40;99474.09;2086802;28;19940;-58
2022/03/08 02:09:19;;;;;;;;;;;;;;;18.67;49.40;99474.28;2086966;28;20247;-58
2022/03/08 02:10:20;;;;;;;;;;;;;;;18.69;49.52;99472.25;2095311;28;19924;-57
2022/03/08 02:11:22;;;;;;;;;;;;;;;18.67;49.30;99468.81;2092862;28;20003;-57
2022/03/08 02:12:22;;;;;;;;;;;;;;;18.69;49.31;99468.63;2088340;28;20326;-57
2022/03/08 02:13:24;;;;;;;;;;;;;;;18.70;49.52;99478.56;2092490;28;20016;-58
2022/03/08 02:14:26;;;;;;;;;;;;;;;18.69;49.48;99477.72;2091537;28;19922;-57
2022/03/08 02:15:27;;;;;;;;;;;;;;;18.70;49.35;99475.84;2092502;28;20026;-58
2022/03/08 02:16:28;;;;;;;;;;;;;;;18.71;49.32;99474.81;2088897;28;19927;-57
2022/03/08 02:17:28;;;;;;;;;;;;;;;18.70;49.42;99463.03;2094676;28;19924;-57
2022/03/08 02:18:28;;;;;;;;;;;;;;;18.71;49.35;99472.06;2089051;28;20273;-57
2022/03/08 02:19:29;;;;;;;;;;;;;;;18.71;49.34;99475.66;2086931;28;20322;-57
2022/03/08 02:20:30;;;;;;;;;;;;;;;18.72;49.33;99471.91;2091810;28;19926;-57
2022/03/08 02:21:37;;;;;;;;;;;;;;;18.73;49.48;99473.63;2078149;28;19921;-57
2022/03/08 02:22:39;;;;;;;;;;;;;;;18.72;49.41;99471.91;2085085;28;19927;-57
2022/03/08 02:23:39;;;;;;;;;;;;;;;18.73;49.29;99470.03;2087052;28;20482;-57
2022/03/08 02:24:39;;;;;;;;;;;;;;;18.75;49.25;99473.47;2090670;28;20030;-57
2022/03/08 02:25:40;;;;;;;;;;;;;;;18.75;49.20;99471.59;2087520;28;19920;-57
2022/03/08 02:26:40;;;;;;;;;;;;;;;18.76;49.23;99464.28;2093065;28;19928;-57
2022/03/08 02:27:44;;;;;;;;;;;;;;;18.77;49.38;99461.41;2091270;28;20885;-57
2022/03/08 02:28:46;;;;;;;;;;;;;;;18.77;49.28;99457.81;2093046;28;19991;-57
2022/03/08 02:29:47;;;;;;;;;;;;;;;18.77;49.32;99458.66;2092247;28;20472;-58
2022/03/08 02:30:47;;;;;;;;;;;;;;;18.77;49.42;99458.66;2081868;28;20067;-58
2022/03/08 02:31:47;;;;;;;;;;;;;;;18.77;49.32;99455.94;2083659;28;19924;-57
2022/03/08 02:32:48;;;;;;;;;;;;;;;18.77;49.34;99458.66;2088938;28;19924;-58
2022/03/08 02:33:48;;;;;;;;;;;;;;;18.76;49.34;99456.94;2092831;28;19920;-58
2022/03/08 02:34:49;;;;;;;;;;;;;;;18.77;49.30;99464.13;2094160;28;20155;-57
2022/03/08 02:35:49;;;;;;;;;;;;;;;18.76;49.33;99462.41;2091278;28;20615;-57
2022/03/08 02:37:12;;;;;;;;;;;;;;;18.76;49.37;99459.66;2088585;28;19965;-57
2022/03/08 02:38:12;;;;;;;;;;;;;;;18.75;49.45;99455.19;2088314;28;20297;-56
2022/03/08 02:39:12;;;;;;;;;;;;;;;18.72;49.37;99455.53;2097971;28;19919;-57
2022/03/08 02:40:14;;;;;;;;;;;;;;;18.73;49.46;99454.50;2092185;28;19908;-57
2022/03/08 02:41:14;;;;;;;;;;;;;;;18.73;49.37;99450.94;2086614;28;20247;-58
2022/03/08 02:42:14;;;;;;;;;;;;;;;18.72;49.48;99450.06;2078814;28;20318;-57
2022/03/08 02:43:15;;;;;;;;;;;;;;;18.71;49.46;99448.34;2078378;28;20363;-57
2022/03/08 02:44:15;;;;;;;;;;;;;;;18.71;49.44;99445.63;2086791;28;19916;-57
2022/03/08 02:45:17;;;;;;;;;;;;;;;18.70;49.48;99441.19;2092602;28;20140;-57
2022/03/08 02:46:17;;;;;;;;;;;;;;;18.70;49.39;99441.19;2089563;28;20358;-58
2022/03/08 02:47:18;;;;;;;;;;;;;;;18.67;49.44;99436.06;2097119;28;19961;-57
2022/03/08 02:48:18;;;;;;;;;;;;;;;18.67;49.50;99441.53;2086445;28;19923;-57
2022/03/08 02:49:18;;;;;;;;;;;;;;;18.68;49.49;99443.22;2089649;28;19920;-57
2022/03/08 02:50:19;;;;;;;;;;;;;;;18.68;49.46;99447.84;2092806;28;20242;-58
2022/03/08 02:51:20;;;;;;;;;;;;;;;18.67;49.54;99441.53;2091960;28;19916;-59
2022/03/08 02:52:20;;;;;;;;;;;;;;;18.67;49.51;99440.63;2092716;28;19916;-58
2022/03/08 02:53:21;;;;;;;;;;;;;;;18.67;49.54;99444.25;2090313;28;20457;-59
2022/03/08 02:54:21;;;;;;;;;;;;;;;18.67;49.59;99449.72;2090118;28;19962;-59
2022/03/08 02:55:23;;;;;;;;;;;;;;;18.67;49.46;99448.84;2092910;28;20291;-59
2022/03/08 02:56:23;;;;;;;;;;;;;;;18.65;49.70;99443.56;2092471;28;20245;-58
2022/03/08 02:57:23;;;;;;;;;;;;;;;18.64;49.63;99436.38;2088189;28;19916;-58
2022/03/08 02:58:24;;;;;;;;;;;;;;;18.65;49.56;99438.09;2089631;28;19916;-58
2022/03/08 02:59:24;;;;;;;;;;;;;;;18.64;49.52;99441.81;2089859;28;19916;-58
2022/03/08 03:00:25;;;;;;;;;;;;;;;18.65;49.53;99443.56;2092007;28;19972;-58
2022/03/08 03:01:26;;;;;;;;;;;;;;;18.65;49.53;99440.81;2077490;28;20279;-58
2022/03/08 03:02:26;;;;;;;;;;;;;;;18.63;49.69;99437.41;2085197;28;19925;-58
2022/03/08 03:03:26;;;;;;;;;;;;;;;18.63;49.61;99440.13;2096336;28;19972;-59
2022/03/08 03:04:27;;;;;;;;;;;;;;;18.62;49.69;99444.75;2093159;28;20339;-58
2022/03/08 03:05:27;;;;;;;;;;;;;;;18.63;49.50;99440.13;2090426;28;19915;-58
2022/03/08 03:06:28;;;;;;;;;;;;;;;18.62;49.68;99441.16;2085832;28;20234;-57
2022/03/08 03:07:28;;;;;;;;;;;;;;;18.60;49.66;99435.84;2087140;28;19943;-58
2022/03/08 03:08:28;;;;;;;;;;;;;;;18.60;49.63;99435.84;2094413;28;19923;-58
2022/03/08 03:09:29;;;;;;;;;;;;;;;18.62;49.54;99432.97;2090562;28;20042;-58
2022/03/08 03:10:30;;;;;;;;;;;;;;;18.61;49.70;99436.69;2091751;28;19959;-59
2022/03/08 03:11:31;;;;;;;;;;;;;;;18.60;49.51;99435.00;2091681;28;20200;-59
2022/03/08 03:12:31;;;;;;;;;;;;;;;18.60;49.44;99443.19;2092087;28;19931;-58
2022/03/08 03:13:31;;;;;;;;;;;;;;;18.59;49.65;99439.63;2093272;28;20366;-58
2022/03/08 03:14:32;;;;;;;;;;;;;;;18.59;49.65;99444.19;2091690;28;20711;-58
2022/03/08 03:15:32;;;;;;;;;;;;;;;18.59;49.54;99427.81;2088695;28;20430;-59
2022/03/08 03:16:33;;;;;;;;;;;;;;;18.58;49.61;99437.88;2087586;28;20181;-58
2022/03/08 03:17:33;;;;;;;;;;;;;;;18.56;49.66;99433.59;2094294;28;19947;-58
2022/03/08 03:18:33;;;;;;;;;;;;;;;18.57;49.67;99432.56;2097601;28;20028;-59
2022/03/08 03:19:33;;;;;;;;;;;;;;;18.54;49.67;99431.03;2090559;28;20407;-57
2022/03/08 03:20:34;;;;;;;;;;;;;;;18.55;49.70;99432.75;2090804;28;19960;-58
2022/03/08 03:21:34;;;;;;;;;;;;;;;18.55;49.67;99434.63;2087773;28;20020;-58
2022/03/08 03:22:35;;;;;;;;;;;;;;;18.52;49.62;99427.63;2091087;28;20302;-58
2022/03/08 03:23:35;;;;;;;;;;;;;;;18.52;49.90;99426.75;2092415;28;20515;-58
2022/03/08 03:24:36;;;;;;;;;;;;;;;18.52;49.72;99426.75;2088456;28;19928;-58
2022/03/08 03:25:36;;;;;;;;;;;;;;;18.53;49.88;99431.22;2086858;28;20436;-58
2022/03/08 03:26:36;;;;;;;;;;;;;;;18.51;49.89;99425.06;2091134;28;19963;-58
2022/03/08 03:27:37;;;;;;;;;;;;;;;18.50;49.75;99426.09;2084849;28;19924;-58
2022/03/08 03:28:37;;;;;;;;;;;;;;;18.51;49.98;99425.06;2092139;28;20148;-58
2022/03/08 03:29:38;;;;;;;;;;;;;;;18.48;50.02;99426.22;2091470;28;20229;-58
2022/03/08 03:30:38;;;;;;;;;;;;;;;18.50;49.93;99426.09;2088570;28;20113;-58
2022/03/08 03:31:38;;;;;;;;;;;;;;;18.48;49.82;99414.47;2091506;28;19973;-58
2022/03/08 03:32:39;;;;;;;;;;;;;;;18.48;49.98;99419.94;2097939;28;20081;-58
2022/03/08 03:33:39;;;;;;;;;;;;;;;18.49;49.99;99416.16;2086130;28;19920;-58
2022/03/08 03:34:40;;;;;;;;;;;;;;;18.46;49.93;99408.31;2092022;28;20167;-58
2022/03/08 03:35:40;;;;;;;;;;;;;;;18.48;49.93;99414.47;2088261;28;20188;-58
2022/03/08 03:36:40;;;;;;;;;;;;;;;18.48;49.83;99411.75;2091246;28;20015;-58
2022/03/08 03:37:41;;;;;;;;;;;;;;;18.49;49.78;99407.97;2091458;28;20027;-58
2022/03/08 03:38:41;;;;;;;;;;;;;;;18.49;49.90;99405.25;2090517;28;20312;-58
2022/03/08 03:39:41;;;;;;;;;;;;;;;18.49;49.85;99416.16;2092114;28;19926;-58
2022/03/08 03:40:41;;;;;;;;;;;;;;;18.48;49.67;99414.47;2091128;28;20616;-58
2022/03/08 03:41:42;;;;;;;;;;;;;;;18.49;49.82;99421.63;2090027;28;20493;-58
2022/03/08 03:42:42;;;;;;;;;;;;;;;18.48;49.70;99414.47;2092119;28;20182;-58
2022/03/08 03:43:43;;;;;;;;;;;;;;;18.49;49.76;99416.16;2088629;28;19989;-58
2022/03/08 03:44:43;;;;;;;;;;;;;;;18.48;49.77;99414.47;2091740;28;20201;-57
2022/03/08 03:45:43;;;;;;;;;;;;;;;18.48;49.70;99419.94;2089208;28;19955;-58
2022/03/08 03:46:44;;;;;;;;;;;;;;;18.48;49.67;99414.47;2090729;28;19924;-58
2022/03/08 03:47:44;;;;;;;;;;;;;;;18.47;49.70;99407.28;2094120;28;19920;-58
2022/03/08 03:48:44;;;;;;;;;;;;;;;18.47;49.69;99412.75;2089019;28;19981;-57
2022/03/08 03:49:44;;;;;;;;;;;;;;;18.47;49.88;99412.75;2080663;28;19921;-58
2022/03/08 03:50:45;;;;;;;;;;;;;;;18.47;49.79;99415.47;2080641;28;19924;-57
2022/03/08 03:51:47;;;;;;;;;;;;;;;18.47;49.70;99407.28;2087003;28;19920;-57
2022/03/08 03:52:47;;;;;;;;;;;;;;;18.45;49.75;99409.31;2091407;28;19955;-58
2022/03/08 03:53:47;;;;;;;;;;;;;;;18.46;49.72;99406.44;2088865;28;19927;-57
2022/03/08 03:54:47;;;;;;;;;;;;;;;18.46;49.71;99408.31;2090099;28;20227;-57
2022/03/08 03:55:48;;;;;;;;;;;;;;;18.45;49.70;99403.84;2091456;28;19930;-57
2022/03/08 03:56:48;;;;;;;;;;;;;;;18.44;49.89;99408.47;2090715;28;20303;-57
2022/03/08 03:57:48;;;;;;;;;;;;;;;18.45;49.73;99410.19;2086104;28;19971;-59
2022/03/08 03:58:49;;;;;;;;;;;;;;;18.43;49.77;99407.63;2089945;28;20106;-58
2022/03/08 03:59:50;;;;;;;;;;;;;;;18.42;49.75;99411.38;2093718;28;20324;-57
2022/03/08 04:00:50;;;;;;;;;;;;;;;18.41;49.91;99401.44;2089790;28;19928;-57
2022/03/08 04:01:51;;;;;;;;;;;;;;;18.41;50.08;99404.19;2088447;28;20363;-57
2022/03/08 04:02:51;;;;;;;;;;;;;;;18.40;50.04;99407.94;2090214;28;19991;-57
2022/03/08 04:03:51;;;;;;;;;;;;;;;18.40;49.82;99412.56;2091359;28;19931;-57
2022/03/08 04:04:51;;;;;;;;;;;;;;;18.39;50.08;99408.94;2090486;28;19929;-57
2022/03/08 04:05:52;;;;;;;;;;;;;;;18.39;50.05;99417.13;2091726;28;20123;-57
2022/03/08 04:06:52;;;;;;;;;;;;;;;18.38;50.03;99415.44;2094339;28;20753;-58
2022/03/08 04:07:52;;;;;;;;;;;;;;;18.38;49.96;99415.44;2085727;28;19932;-57
2022/03/08 04:08:53;;;;;;;;;;;;;;;18.37;49.94;99419.19;2083046;28;20341;-58
2022/03/08 04:09:53;;;;;;;;;;;;;;;18.36;49.88;99417.47;2087822;28;19923;-58
2022/03/08 04:10:53;;;;;;;;;;;;;;;18.36;50.07;99414.72;2090782;28;20132;-57
2022/03/08 04:11:54;;;;;;;;;;;;;;;18.36;49.96;99414.72;2089363;28;20369;-58
2022/03/08 04:12:54;;;;;;;;;;;;;;;18.36;50.07;99412.00;2089921;28;19921;-57
2022/03/08 04:13:54;;;;;;;;;;;;;;;18.36;50.17;99413.88;2090143;28;19967;-57
2022/03/08 04:14:54;;;;;;;;;;;;;;;18.34;50.12;99416.75;2091151;28;19920;-57
2022/03/08 04:15:55;;;;;;;;;;;;;;;18.35;50.06;99410.31;2089167;28;19969;-58
2022/03/08 04:16:55;;;;;;;;;;;;;;;18.36;49.93;99420.19;2088481;28;19923;-58
2022/03/08 04:17:55;;;;;;;;;;;;;;;18.36;50.00;99416.63;2090804;28;19927;-57
2022/03/08 04:18:56;;;;;;;;;;;;;;;18.35;50.05;99410.31;2089854;28;19917;-57
2022/03/08 04:19:56;;;;;;;;;;;;;;;18.36;50.19;99411.16;2090986;28;20302;-57
2022/03/08 04:20:56;;;;;;;;;;;;;;;18.35;49.97;99407.56;2091021;28;20322;-57
2022/03/08 04:21:57;;;;;;;;;;;;;;;18.36;50.11;99414.72;2088419;28;19974;-57
2022/03/08 04:22:57;;;;;;;;;;;;;;;18.35;50.11;99418.50;2087904;28;20055;-57
2022/03/08 04:23:59;;;;;;;;;;;;;;;18.36;50.22;99416.63;2090202;28;20168;-57
2022/03/08 04:24:59;;;;;;;;;;;;;;;18.35;49.96;99415.75;2090371;28;20042;-59
2022/03/08 04:26:00;;;;;;;;;;;;;;;18.36;50.07;99414.72;2089136;28;19931;-58
2022/03/08 04:27:00;;;;;;;;;;;;;;;18.34;50.06;99411.31;2094155;28;19930;-57
2022/03/08 04:28:02;;;;;;;;;;;;;;;18.35;49.93;99420.38;2089969;28;19928;-58
2022/03/08 04:29:02;;;;;;;;;;;;;;;18.35;50.02;99413.03;2080094;28;19931;-58
2022/03/08 04:30:07;;;;;;;;;;;;;;;18.34;50.13;99414.03;2082288;28;19943;-58
2022/03/08 04:31:07;;;;;;;;;;;;;;;18.34;50.09;99419.50;2087779;28;20354;-58
2022/03/08 04:32:08;;;;;;;;;;;;;;;18.33;50.10;99412.34;2092174;28;20312;-58
2022/03/08 04:33:08;;;;;;;;;;;;;;;18.34;49.97;99418.63;2087027;28;20125;-58
2022/03/08 04:34:08;;;;;;;;;;;;;;;18.33;50.13;99406.88;2090503;28;19921;-58
2022/03/08 04:35:09;;;;;;;;;;;;;;;18.32;50.12;99421.53;2094003;28;19915;-58
2022/03/08 04:36:09;;;;;;;;;;;;;;;18.32;50.20;99415.22;2091013;28;19991;-58
2022/03/08 04:37:09;;;;;;;;;;;;;;;18.33;50.27;99414.22;2093672;28;19980;-58
2022/03/08 04:38:10;;;;;;;;;;;;;;;18.32;50.19;99421.53;2094142;28;19926;-58
2022/03/08 04:39:10;;;;;;;;;;;;;;;18.32;50.20;99416.06;2090769;28;19927;-59
2022/03/08 04:40:11;;;;;;;;;;;;;;;18.32;50.15;99415.22;2092793;28;20287;-58
2022/03/08 04:41:12;;;;;;;;;;;;;;;18.30;50.09;99412.66;2092132;28;19919;-58
2022/03/08 04:42:12;;;;;;;;;;;;;;;18.31;50.26;99414.38;2088251;28;19969;-58
2022/03/08 04:43:12;;;;;;;;;;;;;;;18.31;50.29;99403.44;2091092;28;19911;-59
2022/03/08 04:44:13;;;;;;;;;;;;;;;18.31;50.40;99408.91;2089125;28;20023;-58
2022/03/08 04:45:13;;;;;;;;;;;;;;;18.32;50.34;99407.03;2095380;28;19919;-58
2022/03/08 04:46:13;;;;;;;;;;;;;;;18.31;50.46;99406.19;2090644;28;20314;-58
2022/03/08 04:47:14;;;;;;;;;;;;;;;18.32;50.52;99407.88;2092259;28;19916;-58
2022/03/08 04:48:16;;;;;;;;;;;;;;;18.32;50.44;99405.16;2089308;28;20685;-59
2022/03/08 04:49:16;;;;;;;;;;;;;;;18.32;50.35;99405.16;2079638;28;20099;-58
2022/03/08 04:50:17;;;;;;;;;;;;;;;18.32;50.39;99405.16;2083826;28;19974;-59
2022/03/08 04:51:18;;;;;;;;;;;;;;;18.33;50.52;99398.69;2089294;28;20216;-58
2022/03/08 04:52:18;;;;;;;;;;;;;;;18.33;50.30;99401.41;2091081;28;19916;-58
2022/03/08 04:53:18;;;;;;;;;;;;;;;18.34;50.40;99405.00;2092161;28;19920;-58
2022/03/08 04:54:18;;;;;;;;;;;;;;;18.34;50.39;99403.13;2086931;28;20303;-59
2022/03/08 04:55:19;;;;;;;;;;;;;;;18.34;50.35;99405.84;2094689;28;20045;-59
2022/03/08 04:56:20;;;;;;;;;;;;;;;18.34;50.12;99399.53;2088660;28;19920;-58
2022/03/08 04:57:20;;;;;;;;;;;;;;;18.34;50.39;99408.56;2087594;28;20480;-59
2022/03/08 04:58:20;;;;;;;;;;;;;;;18.35;50.17;99409.47;2089328;28;20219;-58
2022/03/08 04:59:21;;;;;;;;;;;;;;;18.34;50.27;99407.72;2090055;28;19927;-58
2022/03/08 05:00:21;;;;;;;;;;;;;;;18.34;50.36;99403.13;2092549;28;20374;-58
2022/03/08 05:01:21;;;;;;;;;;;;;;;18.35;50.18;99401.28;2094472;28;20150;-59
2022/03/08 05:02:21;;;;;;;;;;;;;;;18.35;50.34;99406.72;2096026;28;20286;-58
2022/03/08 05:03:22;;;;;;;;;;;;;;;18.35;50.27;99404.00;2096358;28;20223;-58
2022/03/08 05:04:22;;;;;;;;;;;;;;;18.35;50.42;99402.13;2094233;28;19920;-59
2022/03/08 05:05:23;;;;;;;;;;;;;;;18.34;50.43;99405.00;2092829;28;20121;-58
2022/03/08 05:06:23;;;;;;;;;;;;;;;18.35;50.33;99404.00;2096650;28;19920;-58
2022/03/08 05:07:23;;;;;;;;;;;;;;;18.34;50.34;99405.84;2092387;28;19989;-58
2022/03/08 05:08:24;;;;;;;;;;;;;;;18.34;50.44;99403.13;2092003;28;19927;-58
2022/03/08 05:09:24;;;;;;;;;;;;;;;18.34;50.35;99411.31;2095256;28;19927;-59
2022/03/08 05:10:24;;;;;;;;;;;;;;;18.33;50.46;99406.03;2093702;28;19919;-58
2022/03/08 05:11:24;;;;;;;;;;;;;;;18.33;50.16;99406.03;2095638;28;20004;-58
2022/03/08 05:12:25;;;;;;;;;;;;;;;18.33;50.41;99414.22;2088590;28;19920;-58
2022/03/08 05:13:25;;;;;;;;;;;;;;;18.33;50.48;99411.47;2091777;28;19930;-59
2022/03/08 05:14:25;;;;;;;;;;;;;;;18.32;50.37;99405.16;2095122;28;19943;-58
2022/03/08 05:15:26;;;;;;;;;;;;;;;18.32;50.20;99410.59;2092436;28;20151;-58
2022/03/08 05:16:27;;;;;;;;;;;;;;;18.31;50.28;99403.44;2086178;28;20319;-59